Time;durP1;ratioP1;P1;durP2;ratioP2;P2;SDS_P1;SDS_P2;PMS_P1;PMS_P2;Temp;Humidity;BMP_temperature;BMP_pressure;BME280_temperature;BME280_humidity;BME280_pressure;Samples;Min_cycle;Max_cycle;Signal;HPM_P1;HPM_P2
2023/12/26 00:00:41;;;;;;;1.23;0.85;;;;;;;11.13;56.47;100337.25;5045219;28;20118;-72
2023/12/26 00:03:09;;;;;;;0.68;0.40;;;;;;;11.14;56.46;100333.50;5039702;28;20047;-72
2023/12/26 00:05:39;;;;;;;1.23;0.45;;;;;;;11.13;56.40;100340.84;5045932;28;20048;-73
2023/12/26 00:08:09;;;;;;;0.25;0.25;;;;;;;11.16;56.62;100345.16;5024509;28;20132;-74
2023/12/26 00:10:37;;;;;;;0.57;0.47;;;;;;;11.14;56.36;100342.53;5026512;28;20044;-74
2023/12/26 00:13:05;;;;;;;0.38;0.32;;;;;;;11.15;56.33;100318.75;5036710;28;20452;-73
2023/12/26 00:15:33;;;;;;;2.30;0.70;;;;;;;11.15;56.21;100340.66;5060577;28;20064;-72
2023/12/26 00:18:01;;;;;;;0.68;0.40;;;;;;;11.15;56.74;100332.47;5024504;28;20045;-73
2023/12/26 00:20:29;;;;;;;0.88;0.30;;;;;;;11.15;56.65;100338.81;5044615;28;20048;-73
2023/12/26 00:22:57;;;;;;;0.85;0.50;;;;;;;11.16;56.49;100328.72;5043727;28;20086;-71
2023/12/26 00:25:27;;;;;;;0.20;0.20;;;;;;;11.17;56.49;100347.75;5045358;28;20048;-73
2023/12/26 00:27:55;;;;;;;1.88;0.30;;;;;;;11.14;56.54;100323.38;5043753;28;20029;-72
2023/12/26 00:30:23;;;;;;;0.32;0.32;;;;;;;11.15;56.50;100335.19;5027759;28;20045;-73
2023/12/26 00:32:52;;;;;;;0.95;0.40;;;;;;;11.14;56.31;100337.06;5041470;28;20526;-72
2023/12/26 00:35:20;;;;;;;0.35;0.30;;;;;;;11.13;56.25;100332.63;5023524;28;20503;-72
2023/12/26 00:37:48;;;;;;;0.30;0.30;;;;;;;11.14;56.01;100319.81;5025739;28;20529;-72
2023/12/26 00:40:17;;;;;;;0.47;0.40;;;;;;;11.15;56.28;100324.25;5026553;28;20045;-72
2023/12/26 00:42:47;;;;;;;0.40;0.40;;;;;;;11.16;55.80;100342.41;5039759;28;20052;-73
2023/12/26 00:45:15;;;;;;;1.38;0.40;;;;;;;11.13;55.74;100334.50;5039815;28;20053;-73
2023/12/26 00:47:43;;;;;;;0.43;0.43;;;;;;;11.12;55.96;100322.69;5033616;28;20046;-73
2023/12/26 00:50:13;;;;;;;0.68;0.47;;;;;;;11.11;55.79;100323.69;5043710;28;20496;-73
2023/12/26 00:52:41;;;;;;;0.47;0.47;;;;;;;11.11;55.76;100331.91;5043298;28;20544;-74
2023/12/26 00:55:09;;;;;;;0.47;0.40;;;;;;;11.13;55.87;100320.81;5044771;28;20041;-70
2023/12/26 00:57:37;;;;;;;1.48;0.50;;;;;;;11.11;56.09;100331.91;5044613;28;20495;-73
2023/12/26 01:00:09;;;;;;;0.65;0.38;;;;;;;11.11;55.29;100337.38;5026766;28;20061;-73
2023/12/26 01:02:38;;;;;;;0.60;0.50;;;;;;;11.10;55.99;100332.06;5056907;28;20045;-74
2023/12/26 01:05:07;;;;;;;0.65;0.50;;;;;;;11.10;55.35;100330.19;5033511;28;20056;-73
2023/12/26 01:07:35;;;;;;;0.75;0.50;;;;;;;11.10;55.36;100326.59;5032346;28;20056;-74
2023/12/26 01:10:05;;;;;;;0.38;0.30;;;;;;;11.09;55.50;100320.25;5031443;28;20053;-73
2023/12/26 01:12:33;;;;;;;0.65;0.40;;;;;;;11.08;55.86;100320.38;5049760;28;20029;-73
2023/12/26 01:15:01;;;;;;;0.68;0.47;;;;;;;11.07;55.85;100324.13;5034164;28;20452;-74
2023/12/26 01:17:31;;;;;;;1.13;0.50;;;;;;;11.07;55.09;100314.03;5045461;28;20079;-74
2023/12/26 01:19:59;;;;;;;0.52;0.40;;;;;;;11.06;55.45;100320.53;5031227;28;20418;-73
2023/12/26 01:22:27;;;;;;;0.65;0.40;;;;;;;11.07;55.59;100318.66;5046573;28;20472;-74
2023/12/26 01:24:55;;;;;;;1.00;0.47;;;;;;;11.04;55.42;100308.88;5046119;28;20094;-72
2023/12/26 01:27:24;;;;;;;0.68;0.50;;;;;;;11.04;55.67;100314.38;5034292;28;20522;-73
2023/12/26 01:29:52;;;;;;;0.50;0.40;;;;;;;11.04;55.14;100311.63;5045404;28;20040;-72
2023/12/26 01:32:20;;;;;;;0.75;0.50;;;;;;;11.03;54.85;100318.13;5027568;28;20507;-74
2023/12/26 01:34:50;;;;;;;0.90;0.50;;;;;;;11.04;54.77;100325.31;5048130;28;20458;-74
2023/12/26 01:37:18;;;;;;;1.27;0.45;;;;;;;11.02;55.34;100330.06;5044648;28;20038;-73
2023/12/26 01:39:47;;;;;;;1.33;0.40;;;;;;;11.00;55.35;100321.13;5047322;28;20057;-73
2023/12/26 01:42:15;;;;;;;0.73;0.40;;;;;;;10.99;55.22;100316.66;5035188;28;20069;-73
2023/12/26 01:44:44;;;;;;;0.40;0.40;;;;;;;10.98;55.27;100325.91;5047875;28;20041;-74
2023/12/26 01:47:12;;;;;;;0.30;0.30;;;;;;;10.97;55.34;100332.41;5046389;28;20140;-73
2023/12/26 01:49:41;;;;;;;0.45;0.40;;;;;;;10.96;54.77;100334.28;5046855;28;20424;-74
2023/12/26 01:52:12;;;;;;;0.50;0.40;;;;;;;10.98;54.85;100345.06;5046708;28;20118;-74
2023/12/26 01:54:42;;;;;;;0.52;0.40;;;;;;;10.94;54.92;100344.53;5048177;28;20045;-73
2023/12/26 01:57:10;;;;;;;1.25;0.50;;;;;;;10.93;55.03;100336.44;5030824;28;20060;-73
2023/12/26 01:59:39;;;;;;;0.57;0.40;;;;;;;10.91;55.31;100346.69;5032909;28;20044;-73
2023/12/26 02:02:08;;;;;;;0.93;0.40;;;;;;;10.89;54.93;100351.47;5028649;28;20037;-74
2023/12/26 02:04:38;;;;;;;0.55;0.43;;;;;;;10.86;54.83;100347.13;5031247;28;20095;-73
2023/12/26 02:07:07;;;;;;;1.23;0.50;;;;;;;10.85;54.76;100353.63;5028030;28;20055;-73
2023/12/26 02:09:40;;;;;;;1.02;0.40;;;;;;;10.82;55.28;100359.38;5031740;28;20131;-72
2023/12/26 02:12:09;;;;;;;0.80;0.45;;;;;;;10.80;54.88;100357.81;5031664;28;20139;-72
2023/12/26 02:14:37;;;;;;;1.38;0.50;;;;;;;10.77;54.92;100374.53;5028373;28;20091;-71
2023/12/26 02:17:10;;;;;;;0.85;0.43;;;;;;;10.75;54.89;100358.25;5042136;28;20037;-72
2023/12/26 02:19:42;;;;;;;2.13;0.50;;;;;;;10.72;55.07;100361.31;5022981;28;20045;-72
2023/12/26 02:22:10;;;;;;;0.98;0.43;;;;;;;10.68;54.97;100370.81;5047057;28;20040;-71
2023/12/26 02:24:42;;;;;;;0.68;0.43;;;;;;;10.68;55.46;100376.28;5045995;28;20484;-71
2023/12/26 02:27:12;;;;;;;0.40;0.40;;;;;;;10.66;55.48;100370.06;5042181;28;20397;-72
2023/12/26 02:29:40;;;;;;;0.90;0.47;;;;;;;10.62;54.98;100365.94;5029633;28;20051;-72
2023/12/26 02:32:10;;;;;;;0.43;0.43;;;;;;;10.62;55.66;100367.78;5027247;28;20091;-72
2023/12/26 02:34:38;;;;;;;0.70;0.50;;;;;;;10.59;55.66;100374.41;5031027;28;20138;-71
2023/12/26 02:37:07;;;;;;;0.50;0.45;;;;;;;10.55;55.65;100365.66;5022918;28;20095;-71
2023/12/26 02:39:36;;;;;;;0.70;0.65;;;;;;;10.54;55.78;100383.06;5043346;28;20179;-71
2023/12/26 02:42:05;;;;;;;0.60;0.45;;;;;;;10.55;55.69;100375.72;5046503;28;20047;-71
2023/12/26 02:44:35;;;;;;;1.42;0.50;;;;;;;10.50;55.40;100384.31;5041754;28;20131;-72
2023/12/26 02:47:03;;;;;;;0.75;0.40;;;;;;;10.49;55.39;100376.25;5027753;28;20483;-72
2023/12/26 02:49:31;;;;;;;1.38;0.40;;;;;;;10.49;55.38;100382.59;5019726;28;20040;-72
2023/12/26 02:51:59;;;;;;;0.88;0.50;;;;;;;10.47;56.00;100387.38;5045786;28;20052;-72
2023/12/26 02:54:27;;;;;;;0.40;0.40;;;;;;;10.47;55.51;100384.63;5043597;28;20216;-72
2023/12/26 02:56:55;;;;;;;0.80;0.60;;;;;;;10.47;55.58;100381.03;5038302;28;20087;-72
2023/12/26 02:59:25;;;;;;;0.63;0.60;;;;;;;10.46;55.58;100382.91;5044639;28;20346;-72
2023/12/26 03:01:54;;;;;;;1.40;0.57;;;;;;;10.45;55.87;100381.19;5041625;28;20057;-72
2023/12/26 03:04:22;;;;;;;1.15;0.50;;;;;;;10.44;55.46;100382.19;5042178;28;20091;-70
2023/12/26 03:06:52;;;;;;;1.23;0.60;;;;;;;10.44;56.01;100376.72;5029789;28;20186;-71
2023/12/26 03:09:20;;;;;;;0.52;0.40;;;;;;;10.43;55.45;100377.72;5026402;28;20088;-70
2023/12/26 03:11:48;;;;;;;1.40;0.60;;;;;;;10.41;56.03;100381.59;5031653;28;20045;-71
2023/12/26 03:14:16;;;;;;;0.90;0.60;;;;;;;10.40;55.87;100386.19;5042824;28;20106;-71
2023/12/26 03:16:46;;;;;;;0.90;0.73;;;;;;;10.42;56.03;100380.59;5044456;28;20045;-70
2023/12/26 03:19:14;;;;;;;1.42;0.68;;;;;;;10.39;55.73;100381.75;5023687;28;20106;-72
2023/12/26 03:21:42;;;;;;;1.35;0.40;;;;;;;10.39;55.77;100384.50;5033756;28;20057;-72
2023/12/26 03:24:11;;;;;;;0.75;0.55;;;;;;;10.39;56.19;100379.03;5032702;28;20073;-71
2023/12/26 03:26:39;;;;;;;0.57;0.40;;;;;;;10.39;55.77;100379.03;5045697;28;20496;-72
2023/12/26 03:29:07;;;;;;;0.90;0.60;;;;;;;10.39;56.02;100389.97;5038974;28;20045;-74
2023/12/26 03:31:39;;;;;;;0.50;0.40;;;;;;;10.39;56.22;100387.25;5056630;28;20571;-74
2023/12/26 03:34:09;;;;;;;;;;;;;;;10.12;56.83;100385.22;5043766;28;20040;-73
2023/12/26 03:36:43;;;;;;;1.85;0.60;;;;;;;10.36;56.03;100393.00;5046082;28;19927;-72
2023/12/26 03:39:12;;;;;;;1.05;0.68;;;;;;;10.36;55.89;100395.72;5045447;28;20048;-73
2023/12/26 03:41:40;;;;;;;1.55;0.57;;;;;;;10.37;55.97;100394.72;5043634;28;20044;-73
2023/12/26 03:44:08;;;;;;;1.83;0.73;;;;;;;10.38;56.25;100395.59;5044629;28;20037;-73
2023/12/26 03:46:36;;;;;;;0.77;0.50;;;;;;;10.38;55.75;100393.72;5058283;28;20033;-73
2023/12/26 03:49:04;;;;;;;0.60;0.50;;;;;;;10.37;55.75;100397.44;5044732;28;20075;-73
2023/12/26 03:51:34;;;;;;;1.70;0.80;;;;;;;10.39;55.73;100400.91;5048887;28;20463;-73
2023/12/26 03:54:03;;;;;;;1.48;0.50;;;;;;;10.36;56.10;100406.66;5047155;28;20041;-73
2023/12/26 03:56:32;;;;;;;0.90;0.50;;;;;;;10.37;55.97;100415.72;5032772;28;20051;-73
2023/12/26 03:59:01;;;;;;;1.70;0.60;;;;;;;10.36;55.82;100412.13;5029095;28;20120;-73
2023/12/26 04:01:30;;;;;;;0.75;0.57;;;;;;;10.35;55.77;100421.34;5035487;28;20410;-73
2023/12/26 04:03:58;;;;;;;1.40;0.65;;;;;;;10.35;56.40;100431.41;5048966;28;20326;-73
2023/12/26 04:06:27;;;;;;;1.60;0.68;;;;;;;10.33;55.92;100423.34;5045646;28;20067;-73
2023/12/26 04:08:57;;;;;;;2.47;0.73;;;;;;;10.35;56.49;100424.06;5032552;28;20436;-73
2023/12/26 04:11:25;;;;;;;1.55;0.65;;;;;;;10.34;56.00;100419.59;5027285;28;20037;-73
2023/12/26 04:13:53;;;;;;;1.25;0.85;;;;;;;10.35;56.16;100420.47;5025646;28;20053;-71
2023/12/26 04:16:21;;;;;;;1.70;0.85;;;;;;;10.35;56.03;100424.06;5028275;28;21286;-73
2023/12/26 04:18:49;;;;;;;1.83;0.70;;;;;;;10.36;56.06;100430.41;5028292;28;20037;-72
2023/12/26 04:21:17;;;;;;;1.92;0.70;;;;;;;10.36;55.94;100424.94;5042417;28;20073;-72
2023/12/26 04:23:45;;;;;;;1.25;0.90;;;;;;;10.37;55.86;100413.00;5035318;28;20335;-72
2023/12/26 04:26:15;;;;;;;2.03;0.70;;;;;;;10.38;56.23;100422.94;5022299;28;20107;-71
2023/12/26 04:28:44;;;;;;;1.42;0.60;;;;;;;10.36;56.56;100424.94;5028122;28;20033;-72
2023/12/26 04:31:12;;;;;;;1.40;0.70;;;;;;;10.34;56.42;100416.88;5026914;28;20051;-69
2023/12/26 04:33:41;;;;;;;1.77;0.70;;;;;;;10.35;55.94;100423.22;5022051;28;20083;-72
2023/12/26 04:36:09;;;;;;;1.90;0.68;;;;;;;10.34;56.39;100425.09;5031201;28;20080;-72
2023/12/26 04:38:37;;;;;;;1.58;0.70;;;;;;;10.34;56.06;100432.41;5044629;28;20048;-72
2023/12/26 04:41:11;;;;;;;1.08;0.70;;;;;;;10.36;55.87;100431.28;5031140;28;20083;-71
2023/12/26 04:43:40;;;;;;;1.20;0.80;;;;;;;10.35;56.54;100424.06;5030843;28;20091;-72
2023/12/26 04:46:08;;;;;;;0.98;0.80;;;;;;;10.34;56.04;100441.50;5048313;28;20037;-71
2023/12/26 04:48:36;;;;;;;2.45;0.85;;;;;;;10.35;56.46;100447.84;5024871;28;20127;-72
2023/12/26 04:51:05;;;;;;;1.90;0.70;;;;;;;10.32;56.36;100440.75;5025945;28;20079;-71
2023/12/26 04:53:33;;;;;;;1.33;0.80;;;;;;;10.32;56.13;100457.19;5048927;28;20504;-72
2023/12/26 04:56:01;;;;;;;1.92;1.08;;;;;;;10.33;56.48;100452.56;5028264;28;20041;-72
2023/12/26 04:58:29;;;;;;;1.30;0.70;;;;;;;10.32;56.06;100448.97;5038789;28;20052;-72
2023/12/26 05:01:00;;;;;;;0.93;0.80;;;;;;;10.35;56.47;100445.97;5048155;28;20101;-71
2023/12/26 05:03:28;;;;;;;3.17;0.95;;;;;;;10.33;56.09;100458.91;5057734;28;20045;-72
2023/12/26 05:05:56;;;;;;;1.92;1.00;;;;;;;10.32;56.25;100456.34;5036013;28;20112;-72
2023/12/26 05:08:24;;;;;;;2.47;0.77;;;;;;;10.32;56.23;100456.34;5031124;28;20049;-71
2023/12/26 05:10:52;;;;;;;1.42;0.90;;;;;;;10.32;56.50;100462.66;5037573;28;20099;-70
2023/12/26 05:13:20;;;;;;;2.35;1.05;;;;;;;10.30;56.49;100472.88;5048126;28;20045;-72
2023/12/26 05:15:48;;;;;;;2.40;0.70;;;;;;;10.31;56.25;100469.16;5029971;28;20187;-72
2023/12/26 05:18:18;;;;;;;2.13;0.80;;;;;;;10.32;56.67;100465.38;5029290;28;20516;-73
2023/12/26 05:20:46;;;;;;;1.90;1.00;;;;;;;10.31;56.25;100471.03;5029762;28;20048;-72
2023/12/26 05:23:14;;;;;;;1.73;0.93;;;;;;;10.30;56.40;100469.28;5030594;28;20072;-72
2023/12/26 05:25:42;;;;;;;2.80;0.90;;;;;;;10.29;56.73;100476.63;5033340;28;20072;-72
2023/12/26 05:28:10;;;;;;;2.20;0.90;;;;;;;10.30;56.33;100491.16;5030839;28;20041;-70
2023/12/26 05:30:38;;;;;;;2.55;0.85;;;;;;;10.29;56.41;100493.03;5028222;28;20107;-71
2023/12/26 05:33:06;;;;;;;1.65;0.88;;;;;;;10.29;56.63;100493.03;5036743;28;20124;-72
2023/12/26 05:35:36;;;;;;;2.08;0.73;;;;;;;10.32;56.23;100481.78;5034883;28;20037;-72
2023/12/26 05:38:04;;;;;;;3.00;0.90;;;;;;;10.31;56.11;100491.03;5032237;28;20053;-72
2023/12/26 05:40:33;;;;;;;1.75;1.13;;;;;;;10.31;56.36;100514.78;5029044;28;20044;-72
2023/12/26 05:43:01;;;;;;;1.30;0.70;;;;;;;10.31;56.09;100517.53;5029554;28;20052;-71
2023/12/26 05:45:32;;;;;;;2.85;0.88;;;;;;;10.31;56.10;100539.41;5038238;28;20053;-72
2023/12/26 05:48:00;;;;;;;1.70;0.90;;;;;;;10.32;56.34;100524.72;5036248;28;20037;-71
2023/12/26 05:50:29;;;;;;;2.03;0.93;;;;;;;10.31;56.33;100551.22;5035290;28;20123;-72
2023/12/26 05:53:00;;;;;;;1.83;0.70;;;;;;;10.32;56.31;100554.81;5046948;28;20067;-71
2023/12/26 05:55:28;;;;;;;2.33;0.93;;;;;;;10.32;56.45;100549.34;5030373;28;20045;-73
2023/12/26 05:57:56;;;;;;;2.25;1.10;;;;;;;10.32;56.01;100555.66;5040715;28;20443;-72
2023/12/26 06:00:24;;;;;;;1.88;0.85;;;;;;;10.32;56.51;100565.75;5045443;28;20138;-72
2023/12/26 06:02:52;;;;;;;2.67;1.10;;;;;;;10.32;56.06;100568.50;5027196;28;20046;-73
2023/12/26 06:05:20;;;;;;;2.25;1.00;;;;;;;10.31;56.41;100562.16;5047450;28;20036;-73
2023/12/26 06:07:48;;;;;;;2.20;1.10;;;;;;;10.31;56.31;100567.63;5038866;28;20044;-73
2023/12/26 06:10:18;;;;;;;2.95;1.10;;;;;;;10.34;56.25;100574.66;5046951;28;20566;-72
2023/12/26 06:12:47;;;;;;;2.90;0.95;;;;;;;10.32;55.90;100580.25;5025904;28;20049;-73
2023/12/26 06:15:15;;;;;;;2.65;0.93;;;;;;;10.34;56.28;100593.81;5046631;28;20091;-72
2023/12/26 06:17:43;;;;;;;3.35;1.33;;;;;;;10.34;56.19;100596.53;5047827;28;20052;-73
2023/12/26 06:20:14;;;;;;;1.48;0.90;;;;;;;10.32;55.76;100599.41;5022091;28;20041;-73
2023/12/26 06:22:43;;;;;;;3.05;1.05;;;;;;;10.33;55.86;100611.22;5029295;28;20306;-71
2023/12/26 06:25:11;;;;;;;2.90;0.90;;;;;;;10.33;56.10;100613.97;5062284;28;20041;-73
2023/12/26 06:27:41;;;;;;;2.53;0.85;;;;;;;10.34;56.19;100619.28;5031109;28;20458;-73
2023/12/26 06:30:10;;;;;;;2.60;1.02;;;;;;;10.33;56.20;100620.28;5029556;28;20056;-72
2023/12/26 06:32:39;;;;;;;2.13;1.02;;;;;;;10.34;55.84;100623.91;5051488;28;20384;-71
2023/12/26 06:35:08;;;;;;;2.42;1.10;;;;;;;10.34;55.47;100619.28;5031931;28;20044;-73
2023/12/26 06:37:36;;;;;;;2.15;1.15;;;;;;;10.34;55.57;100629.38;5038229;28;20038;-72
2023/12/26 06:40:06;;;;;;;1.85;0.90;;;;;;;10.34;56.05;100635.72;5052022;28;20075;-72
2023/12/26 06:42:33;;;;;;;2.70;0.80;;;;;;;10.35;55.43;100631.97;5060316;28;20041;-71
2023/12/26 06:45:03;;;;;;;2.95;1.15;;;;;;;10.37;55.97;100634.56;5030879;28;20507;-70
2023/12/26 06:47:32;;;;;;;1.48;1.00;;;;;;;10.34;55.46;100643.03;5061071;28;20454;-73
2023/12/26 06:50:00;;;;;;;2.80;1.10;;;;;;;10.34;55.77;100641.19;5034109;28;20095;-72
2023/12/26 06:52:28;;;;;;;2.60;1.00;;;;;;;10.33;55.29;100653.13;5029338;28;20041;-70
2023/12/26 06:54:57;;;;;;;2.13;1.00;;;;;;;10.34;55.37;100645.78;5023765;28;20052;-72
2023/12/26 06:57:26;;;;;;;1.30;0.80;;;;;;;10.33;55.57;100661.31;5045083;28;20380;-71
2023/12/26 06:59:54;;;;;;;2.33;1.05;;;;;;;10.33;55.80;100665.94;5026404;28;20139;-72
2023/12/26 07:02:24;;;;;;;2.35;1.02;;;;;;;10.34;55.49;100674.00;5031766;28;20077;-71
2023/12/26 07:04:52;;;;;;;1.95;0.95;;;;;;;10.34;55.47;100690.41;5122967;22;20132;-71
2023/12/26 07:07:20;;;;;;;2.15;1.00;;;;;;;10.33;55.62;100693.28;5041223;28;20037;-72
2023/12/26 07:09:48;;;;;;;3.03;1.17;;;;;;;10.32;55.37;100686.94;5051244;28;20099;-71
2023/12/26 07:12:16;;;;;;;2.08;1.23;;;;;;;10.31;55.81;100690.72;5046100;28;20492;-72
2023/12/26 07:14:45;;;;;;;3.33;1.00;;;;;;;10.30;55.95;100699.91;5043259;28;20045;-71
2023/12/26 07:17:13;;;;;;;2.03;1.00;;;;;;;10.28;55.81;100696.44;5046929;28;20052;-71
2023/12/26 07:19:41;;;;;;;3.80;1.10;;;;;;;10.29;55.78;100706.38;5041779;28;20053;-71
2023/12/26 07:22:09;;;;;;;3.75;1.73;;;;;;;10.28;55.84;100712.00;5045487;28;20037;-71
2023/12/26 07:24:37;;;;;;;2.20;1.15;;;;;;;10.28;55.60;100723.78;5033595;28;20043;-71
2023/12/26 07:27:05;;;;;;;1.73;1.15;;;;;;;10.29;55.90;100719.19;5041245;28;20777;-72
2023/12/26 07:29:33;;;;;;;1.67;1.05;;;;;;;10.28;55.56;100728.41;5044453;28;20067;-72
2023/12/26 07:32:02;;;;;;;2.15;1.10;;;;;;;10.27;55.57;100729.41;5037672;28;20050;-71
2023/12/26 07:34:30;;;;;;;2.03;1.10;;;;;;;10.28;55.57;100740.22;5045127;28;20056;-72
2023/12/26 07:37:00;;;;;;;3.25;1.00;;;;;;;10.29;55.44;100739.22;5042466;28;20083;-72
2023/12/26 07:39:28;;;;;;;3.30;0.95;;;;;;;10.28;55.83;100755.75;5038965;28;20071;-71
2023/12/26 07:42:00;;;;;;;2.20;1.00;;;;;;;10.27;55.77;100752.16;5041027;28;20041;-72
2023/12/26 07:44:31;;;;;;;1.73;0.98;;;;;;;10.26;55.57;100763.22;5051465;28;20056;-73
2023/12/26 07:46:59;;;;;;;3.55;1.30;;;;;;;10.27;55.86;100778.63;5042475;28;20048;-73
2023/12/26 07:49:27;;;;;;;2.13;1.20;;;;;;;10.26;55.53;100785.97;5039206;28;20071;-73
2023/12/26 07:51:55;;;;;;;2.15;1.00;;;;;;;10.25;55.30;100784.22;5035838;28;20548;-72
2023/12/26 07:54:24;;;;;;;2.58;1.00;;;;;;;10.27;55.53;100795.91;5041453;28;20068;-73
2023/12/26 07:56:52;;;;;;;2.08;1.10;;;;;;;10.25;55.87;100806.13;5039701;28;20049;-73
2023/12/26 07:59:20;;;;;;;2.10;1.05;;;;;;;10.27;55.46;100808.72;5042562;28;20137;-73
2023/12/26 08:01:48;;;;;;;1.48;1.00;;;;;;;10.25;55.81;100806.13;5035426;28;20668;-74
2023/12/26 08:04:16;;;;;;;1.85;1.10;;;;;;;10.26;55.31;100802.38;5037525;28;20042;-73
2023/12/26 08:06:45;;;;;;;1.77;1.10;;;;;;;10.25;55.65;100803.38;5038113;28;20963;-73
2023/12/26 08:09:13;;;;;;;2.58;1.10;;;;;;;10.26;55.60;100812.44;5041370;28;20041;-74
2023/12/26 08:11:42;;;;;;;3.13;1.05;;;;;;;10.26;54.92;100824.25;5041969;28;20133;-73
2023/12/26 08:14:10;;;;;;;2.60;0.93;;;;;;;10.24;55.57;100821.66;5036091;28;20040;-74
2023/12/26 08:16:38;;;;;;;2.30;0.95;;;;;;;10.24;54.99;100829.00;5042639;28;20041;-73
2023/12/26 08:19:06;;;;;;;2.25;1.00;;;;;;;10.24;54.87;100843.53;5040248;28;20076;-73
2023/12/26 08:21:35;;;;;;;2.45;0.85;;;;;;;10.23;54.46;100835.50;5043964;28;20091;-74
2023/12/26 08:24:03;;;;;;;2.10;0.90;;;;;;;10.23;54.84;100852.75;5051399;28;20041;-74
2023/12/26 08:26:32;;;;;;;2.22;1.00;;;;;;;10.22;55.13;100853.75;5047415;28;20127;-74
2023/12/26 08:29:04;;;;;;;2.30;1.00;;;;;;;10.23;54.84;100852.75;5040851;28;20049;-73
2023/12/26 08:31:32;;;;;;;3.47;1.20;;;;;;;10.20;55.14;100863.09;5040619;28;20045;-75
2023/12/26 08:34:00;;;;;;;3.20;1.13;;;;;;;10.21;55.03;100856.63;5042450;28;20633;-73
2023/12/26 08:36:28;;;;;;;2.60;1.20;;;;;;;10.21;55.13;100868.44;5055432;28;20095;-73
2023/12/26 08:38:57;;;;;;;3.20;1.17;;;;;;;10.21;55.19;100873.91;5042271;28;20041;-73
2023/12/26 08:41:25;;;;;;;2.58;1.20;;;;;;;10.22;54.94;100880.25;5041225;28;20037;-73
2023/12/26 08:43:53;;;;;;;2.72;1.02;;;;;;;10.22;55.11;100886.59;5034551;28;20686;-73
2023/12/26 08:46:22;;;;;;;2.47;1.20;;;;;;;10.24;55.18;100880.97;5038924;28;20068;-73
2023/12/26 08:48:50;;;;;;;2.55;1.20;;;;;;;10.23;54.75;100895.66;5034822;28;20057;-73
2023/12/26 08:51:19;;;;;;;4.10;1.30;;;;;;;10.22;54.61;100903.00;5037804;28;20432;-73
2023/12/26 08:53:47;;;;;;;2.22;1.15;;;;;;;10.22;54.94;100900.25;5040186;28;20037;-72
2023/12/26 08:56:17;;;;;;;3.40;1.50;;;;;;;10.22;54.65;100908.47;5042881;28;20041;-73
2023/12/26 08:58:45;;;;;;;2.42;1.08;;;;;;;10.22;55.01;100903.00;5037051;28;20732;-74
2023/12/26 09:01:14;;;;;;;2.78;1.10;;;;;;;10.23;54.96;100910.19;5034813;28;20068;-73
2023/12/26 09:03:44;;;;;;;2.72;1.08;;;;;;;10.26;54.43;100910.91;5037613;28;20128;-73
2023/12/26 09:06:12;;;;;;;2.15;0.93;;;;;;;10.23;54.74;100918.38;5037397;28;20109;-73
2023/12/26 09:08:40;;;;;;;3.55;1.15;;;;;;;10.24;53.92;100927.47;5037645;28;20463;-73
2023/12/26 09:11:09;;;;;;;2.78;1.00;;;;;;;10.23;53.99;100934.78;5031484;28;20550;-74
2023/12/26 09:13:37;;;;;;;3.30;1.08;;;;;;;10.23;53.84;100929.31;5036263;28;20101;-73
2023/12/26 09:16:05;;;;;;;2.28;0.70;;;;;;;10.22;53.71;100922.16;5039480;28;20056;-74
2023/12/26 09:18:33;;;;;;;3.30;0.90;;;;;;;10.23;53.46;100923.84;5036857;28;20488;-73
2023/12/26 09:21:02;;;;;;;4.05;1.30;;;;;;;10.24;53.79;100931.06;5036042;28;20041;-73
2023/12/26 09:23:30;;;;;;;2.33;0.88;;;;;;;10.23;53.49;100945.72;5028840;28;20057;-73
2023/12/26 09:25:58;;;;;;;3.85;1.10;;;;;;;10.24;53.66;100946.59;5045957;28;20049;-73
2023/12/26 09:28:26;;;;;;;4.75;1.05;;;;;;;10.26;53.52;100951.94;5043044;28;20596;-73
2023/12/26 09:30:54;;;;;;;3.30;1.10;;;;;;;10.26;53.65;100952.81;5046136;28;20091;-73
2023/12/26 09:33:23;;;;;;;2.53;0.93;;;;;;;10.27;53.52;100951.81;5043306;28;20038;-73
2023/12/26 09:35:52;;;;;;;3.50;1.08;;;;;;;10.28;53.40;100956.31;5056636;28;20396;-73
2023/12/26 09:38:21;;;;;;;2.15;1.08;;;;;;;10.31;53.43;100963.38;5042650;28;20033;-73
2023/12/26 09:40:50;;;;;;;2.45;1.10;;;;;;;10.30;53.89;100978.94;5043359;28;20045;-73
2023/12/26 09:43:18;;;;;;;2.53;1.00;;;;;;;10.32;54.00;100971.44;5034175;28;20087;-73
2023/12/26 09:45:46;;;;;;;3.10;1.00;;;;;;;10.34;53.46;100979.53;5047468;28;20679;-73
2023/12/26 09:48:15;;;;;;;2.95;1.00;;;;;;;10.36;53.37;100978.41;5041068;28;20041;-73
2023/12/26 09:50:44;;;;;;;3.75;1.00;;;;;;;10.37;53.19;100993.81;5044627;28;20063;-73
2023/12/26 09:53:16;;;;;;;4.03;1.20;;;;;;;10.38;53.37;100986.50;5029570;28;20520;-73
2023/12/26 09:55:46;;;;;;;4.90;1.67;;;;;;;10.38;53.61;101002.91;5038164;28;20667;-73
2023/12/26 09:58:15;;;;;;;4.18;1.48;;;;;;;10.37;53.33;101002.03;5042434;28;20053;-73
2023/12/26 10:00:45;;;;;;;4.13;1.60;;;;;;;10.37;53.23;101012.09;5043136;28;20107;-73
2023/12/26 10:03:14;;;;;;;3.30;1.60;;;;;;;10.36;53.38;101003.03;5040505;28;20060;-71
2023/12/26 10:05:43;;;;;;;4.15;1.90;;;;;;;10.35;53.24;100998.56;5046508;28;20391;-72
2023/12/26 10:08:11;;;;;;;3.92;1.70;;;;;;;10.33;53.02;101000.53;5036617;28;20060;-72
2023/12/26 10:10:42;;;;;;;3.28;1.90;;;;;;;10.32;53.07;101007.00;5038902;28;20084;-71
2023/12/26 10:13:12;;;;;;;4.47;2.10;;;;;;;10.33;53.06;101016.94;5037938;28;20163;-71
2023/12/26 10:15:42;;;;;;;4.93;2.30;;;;;;;10.35;53.36;101022.31;5041233;28;20055;-71
2023/12/26 10:18:11;;;;;;;3.38;1.92;;;;;;;10.33;53.68;101030.63;5040605;28;20163;-71
2023/12/26 10:20:40;;;;;;;4.28;1.80;;;;;;;10.36;53.33;101029.50;5040339;28;20397;-72
2023/12/26 10:23:08;;;;;;;3.80;1.88;;;;;;;10.36;53.29;101029.50;5036571;28;20075;-72
2023/12/26 10:25:36;;;;;;;3.70;1.80;;;;;;;10.37;53.36;101029.38;5053980;28;20527;-72
2023/12/26 10:28:05;;;;;;;4.38;2.08;;;;;;;10.39;53.68;101026.53;5038019;28;20077;-71
2023/12/26 10:30:34;;;;;;;6.30;2.50;;;;;;;10.41;52.99;101039.06;5042219;28;20087;-71
2023/12/26 10:33:03;;;;;;;5.30;2.40;;;;;;;10.41;53.26;101033.59;5033691;28;20615;-71
2023/12/26 10:35:33;;;;;;;4.30;2.58;;;;;;;10.42;53.53;101040.81;5042863;28;20143;-71
2023/12/26 10:38:02;;;;;;;6.40;2.33;;;;;;;10.45;53.53;101042.44;5040619;28;20060;-71
2023/12/26 10:40:30;;;;;;;6.78;2.30;;;;;;;10.47;53.47;101048.66;5041950;28;20106;-71
2023/12/26 10:42:58;;;;;;;7.10;2.30;;;;;;;10.49;53.19;101058.44;5052690;28;20104;-72
2023/12/26 10:45:29;;;;;;;3.92;1.85;;;;;;;10.51;52.68;101053.72;5042782;28;20585;-71
2023/12/26 10:48:02;;;;;;;5.25;2.17;;;;;;;10.53;52.46;101050.84;5037292;28;20060;-72
2023/12/26 10:50:32;;;;;;;3.72;1.63;;;;;;;10.52;52.71;101051.84;5026997;28;20511;-72
2023/12/26 10:53:15;;;;;;;3.78;1.80;;;;;;;10.53;51.16;101059.06;5021553;28;20049;-72
2023/12/26 10:55:45;;;;;;;4.20;1.65;;;;;;;10.49;52.13;101072.13;5020796;28;20038;-71
2023/12/26 10:58:18;;;;;;;5.45;1.70;;;;;;;10.52;51.93;101073.75;5027849;28;20524;-71
2023/12/26 11:00:52;;;;;;;3.33;1.63;;;;;;;10.50;51.02;101076.59;5025047;28;20053;-70
2023/12/26 13:53:15;;;;;;;4.10;1.25;;;;;;;10.45;47.42;101233.97;5044998;28;20563;-72
2023/12/26 13:55:42;;;;;;;5.32;1.80;;;;;;;10.46;47.76;101242.06;5046101;28;20044;-72
2023/12/26 13:58:48;;;;;;;3.50;1.27;;;;;;;10.47;45.37;101243.81;5037747;28;20038;-72
2023/12/26 14:01:53;;;;;;;3.55;1.50;;;;;;;10.45;45.18;101242.19;5045301;28;20049;-72
2023/12/26 14:04:21;;;;;;;5.28;1.58;;;;;;;10.43;46.92;101253.25;5044366;28;20052;-73
2023/12/26 14:06:51;;;;;;;5.88;1.88;;;;;;;10.44;46.71;101252.25;5058463;28;20061;-73
2023/12/26 14:09:57;;;;;;;4.95;1.98;;;;;;;10.45;45.22;101253.13;5046803;28;20107;-72
2023/12/26 14:13:02;;;;;;;3.20;1.35;;;;;;;10.42;45.11;101258.81;5039977;28;20045;-73
2023/12/26 14:15:32;;;;;;;4.47;1.60;;;;;;;10.40;46.65;101250.75;5037656;28;20052;-73
2023/12/26 14:18:00;;;;;;;3.65;1.42;;;;;;;10.41;46.57;101257.94;5044616;28;20044;-72
2023/12/26 14:21:05;;;;;;;4.32;1.80;;;;;;;10.41;45.51;101262.56;5042104;28;20041;-72
2023/12/26 14:24:10;;;;;;;4.90;1.60;;;;;;;10.37;45.21;101263.81;5058746;28;20527;-72